Current Weather Conditions: station NFBF1

sailwx.info

Wind from 030 at 8 knots gusting 9

Air temperature 24.0° C

Last reported at 2014-Oct-26 04:54 UTC.
Time now 2014-Oct-26 06:58 UTC

Location: N 25°05' W 081°05'.
View on Google Maps.

See reports from other nearby stations

  
Tides and Currents Weather Stations Pressure Air Temp Water Temp Dewpoint Dewpoint Depression Visibility Wind Speed Wind Dir Waves Ship Positions
date/time (UTC)wind fromknots sea level pressurealtimeterstation pressurevisibilityair tempwater tempwave heightnotes
2014-Oct-26 04:54 030 8 gusting 9 24.0
2014-Oct-26 04:48 040 8 gusting 9 24.1
2014-Oct-26 04:42 040 8 gusting 9 24.1
2014-Oct-26 04:36 050 7 gusting 8 24.1
2014-Oct-26 04:30 050 7 gusting 9 24.1
2014-Oct-26 04:24 050 6 gusting 8 24.1
2014-Oct-26 04:18 050 6 gusting 8 24.2
2014-Oct-26 04:12 050 7 gusting 9 24.3
2014-Oct-26 04:06 050 7 gusting 8 24.3
2014-Oct-26 04:00 050 7 gusting 8 24.3
2014-Oct-26 03:54 050 6 gusting 7 24.3
2014-Oct-26 03:48 040 6 gusting 7 24.3
2014-Oct-26 02:54 050 8 gusting 10 24.9
2014-Oct-26 02:48 050 9 gusting 12 24.9
2014-Oct-26 02:42 060 9 gusting 11 24.9
2014-Oct-26 02:36 060 9 gusting 11 24.9
2014-Oct-26 02:30 060 7 gusting 9 24.8
2014-Oct-26 02:24 060 6 gusting 7 24.7
2014-Oct-26 02:18 060 6 gusting 7 24.7
2014-Oct-26 02:12 060 6 gusting 7 24.7
2014-Oct-26 02:06 060 6 gusting 8 24.8
2014-Oct-26 02:00 060 7 gusting 8 24.7
2014-Oct-26 01:54 060 7 gusting 8 24.7
2014-Oct-26 01:48 060 8 gusting 10 24.8
2014-Oct-26 01:42 050 9 gusting 11 25.0
2014-Oct-26 01:36 030 7 gusting 9 25.2
2014-Oct-26 01:30 010 6 gusting 8 25.2
2014-Oct-26 01:24 010 7 gusting 8 25.3
2014-Oct-26 01:18 360 8 gusting 9 25.3
2014-Oct-26 01:12 360 8 gusting 10 25.3
2014-Oct-26 01:06 360 9 gusting 10 25.4
2014-Oct-26 01:00 360 10 gusting 12 25.4
2014-Oct-26 00:54 350 10 gusting 12 25.3
2014-Oct-26 00:48 350 10 gusting 12 25.4
2014-Oct-25 22:54 350 12 gusting 14 25.4
2014-Oct-25 22:48 350 11 gusting 12 25.4
2014-Oct-25 21:54 330 13 gusting 15 25.9
2014-Oct-25 21:48 340 12 gusting 14 26.0
2014-Oct-25 20:54 350 12 gusting 13 26.1
2014-Oct-25 20:48 340 11 gusting 12 26.1
2014-Oct-25 20:42 340 11 gusting 13 26.0
2014-Oct-25 20:36 350 11 gusting 13 26.0
2014-Oct-25 20:30 340 12 gusting 13 26.0
2014-Oct-25 20:24 340 12 gusting 14 26.1
2014-Oct-25 20:18 340 12 gusting 14 26.0
2014-Oct-25 20:12 340 12 gusting 13 26.0
2014-Oct-25 20:06 340 12 gusting 14 26.1
2014-Oct-25 20:00 340 13 gusting 15 26.1
2014-Oct-25 19:54 330 14 gusting 16 26.0
2014-Oct-25 19:48 330 14 gusting 16 26.0
2014-Oct-25 19:30 330 15 gusting 17 26.0
2014-Oct-25 19:24 330 14 gusting 16 26.0
2014-Oct-25 19:18 330 15 gusting 17 26.0
2014-Oct-25 19:12 330 14 gusting 16 25.9
2014-Oct-25 19:06 340 15 gusting 17 25.9
2014-Oct-25 19:00 330 14 gusting 15 25.9
2014-Oct-25 18:54 340 15 gusting 17 25.9
2014-Oct-25 18:48 330 15 gusting 17 25.8
2014-Oct-25 17:54 010 8 gusting 10 26.6
2014-Oct-25 17:48 030 7 gusting 9 26.6
2014-Oct-25 17:42 030 7 gusting 11 26.6
2014-Oct-25 17:36 030 9 gusting 11 26.7
2014-Oct-25 17:30 040 9 gusting 12 26.6
2014-Oct-25 17:24 030 7 gusting 9 26.5
2014-Oct-25 17:18 030 8 gusting 12 26.4
2014-Oct-25 17:12 030 10 gusting 12 26.4
2014-Oct-25 17:06 030 9 gusting 11 26.4
2014-Oct-25 17:00 030 9 gusting 11 26.4
2014-Oct-25 16:54 040 9 gusting 11 26.4
2014-Oct-25 16:48 040 8 gusting 11 26.4
2014-Oct-25 16:42 050 9 gusting 12 26.3
2014-Oct-25 16:36 050 10 gusting 12 26.1
2014-Oct-25 16:30 040 10 gusting 13 26.0
2014-Oct-25 16:24 040 9 gusting 12 26.0
2014-Oct-25 16:18 040 11 gusting 13 25.9
2014-Oct-25 16:12 040 11 gusting 14 25.8
2014-Oct-25 16:06 040 12 gusting 13 25.7
2014-Oct-25 16:00 040 11 gusting 12 25.6
2014-Oct-25 15:54 040 10 gusting 13 25.5
2014-Oct-25 15:48 040 10 gusting 12 25.5
2014-Oct-25 14:54 040 13 gusting 17 24.8
2014-Oct-25 14:48 030 13 gusting 16 24.7
2014-Oct-25 13:54 030 15 gusting 18 23.7
2014-Oct-25 13:48 040 12 gusting 15 23.6
2014-Oct-25 12:54 020 15 gusting 17 22.9
2014-Oct-25 12:48 020 14 gusting 16 22.7
2014-Oct-25 12:42 020 13 gusting 15 22.4
2014-Oct-25 12:36 010 14 gusting 16 22.4
2014-Oct-25 12:30 020 15 gusting 17 22.3
2014-Oct-25 12:24 010 14 gusting 16 22.4
2014-Oct-25 12:18 010 15 gusting 18 22.6
2014-Oct-25 12:12 020 14 gusting 16 22.6
2014-Oct-25 12:06 020 13 gusting 15 22.6
2014-Oct-25 12:00 030 13 gusting 15 22.5
2014-Oct-25 11:54 030 15 gusting 16 22.5
2014-Oct-25 11:48 030 14 gusting 16 22.6
2014-Oct-25 11:42 030 14 gusting 18 22.6
2014-Oct-25 11:36 030 16 gusting 19 22.7
2014-Oct-25 11:30 030 16 gusting 18 22.7
2014-Oct-25 11:24 030 16 gusting 18 22.8
2014-Oct-25 11:18 030 16 gusting 20 22.9
2014-Oct-25 11:12 030 16 gusting 18 22.8
2014-Oct-25 11:06 030 15 gusting 19 22.9
2014-Oct-25 11:00 030 15 gusting 18 22.9
2014-Oct-25 10:54 030 15 gusting 18 22.9
2014-Oct-25 10:48 030 16 gusting 19 23.0
2014-Oct-25 09:54 030 17 gusting 19 23.1
2014-Oct-25 09:48 030 18 gusting 20 23.1
2014-Oct-25 09:42 030 17 gusting 20 23.1
2014-Oct-25 09:36 030 16 gusting 19 23.1
2014-Oct-25 09:30 030 16 gusting 19 23.1
2014-Oct-25 09:24 030 16 gusting 19 23.1
2014-Oct-25 09:18 030 15 gusting 18 23.1
2014-Oct-25 09:12 030 15 gusting 18 23.1
2014-Oct-25 09:06 020 15 gusting 18 23.1
2014-Oct-25 09:00 030 16 gusting 19 23.1
2014-Oct-25 08:54 030 16 gusting 18 23.1
2014-Oct-25 08:48 030 17 gusting 20 23.1
2014-Oct-25 07:54 020 16 gusting 18 23.1
2014-Oct-25 07:48 020 16 gusting 20 23.0
2014-Oct-25 06:54 020 15 gusting 17 23.1
2014-Oct-25 06:48 020 14 gusting 18 23.2
2014-Oct-25 05:54 010 14 gusting 17 23.4
2014-Oct-25 05:48 020 15 gusting 18 23.4
2014-Oct-25 05:42 010 16 gusting 19 23.4
2014-Oct-25 05:36 010 15 gusting 17 23.5
2014-Oct-25 05:30 010 15 gusting 18 23.5
2014-Oct-25 05:24 020 16 gusting 18 23.6
2014-Oct-25 05:18 020 14 gusting 16 23.7
2014-Oct-25 05:12 020 15 gusting 18 23.6
2014-Oct-25 05:06 020 15 gusting 18 23.7
2014-Oct-25 05:00 020 15 gusting 17 23.6
2014-Oct-25 04:54 020 16 gusting 19 23.7
2014-Oct-25 04:48 020 16 gusting 20 23.8
2014-Oct-25 04:42 010 16 gusting 19 23.9
2014-Oct-25 04:36 020 15 gusting 19 23.9
2014-Oct-25 04:30 020 16 gusting 19 23.9
2014-Oct-25 04:24 020 16 gusting 19 23.9
2014-Oct-25 04:18 020 16 gusting 19 24.0
2014-Oct-25 04:12 020 15 gusting 19 24.1
2014-Oct-25 04:06 020 16 gusting 20 24.1
2014-Oct-25 04:00 020 15 gusting 17 24.1
2014-Oct-25 03:54 020 15 gusting 18 24.1
2014-Oct-25 03:48 020 14 gusting 17 24.2
2014-Oct-25 02:54 020 15 gusting 18 24.7
2014-Oct-25 02:48 020 15 gusting 18 24.7
2014-Oct-25 01:54 020 12 gusting 14 25.1
2014-Oct-25 01:48 020 12 gusting 15 25.2
2014-Oct-25 01:42 030 13 gusting 15 25.3
2014-Oct-25 01:36 030 13 gusting 15 25.4
2014-Oct-25 01:30 030 13 gusting 15 25.4
2014-Oct-25 01:24 030 13 gusting 16 25.5
2014-Oct-25 01:18 030 14 gusting 18 25.5
2014-Oct-25 01:12 030 13 gusting 15 25.6
2014-Oct-25 01:06 030 13 gusting 15 25.6
2014-Oct-25 01:00 030 13 gusting 17 25.6
2014-Oct-25 00:54 030 13 gusting 15 25.7
2014-Oct-25 00:48 030 14 gusting 19 25.8
2014-Oct-24 23:30 040 16 gusting 20 26.2
2014-Oct-24 23:24 040 16 gusting 20 26.3
2014-Oct-24 23:18 040 15 gusting 18 26.3
2014-Oct-24 23:12 040 14 gusting 19 26.3
2014-Oct-24 23:06 040 14 gusting 18 26.4
2014-Oct-24 23:00 040 15 gusting 19 26.4
2014-Oct-24 22:54 050 17 gusting 19 26.4
2014-Oct-24 22:48 040 17 gusting 20 26.4
2014-Oct-24 22:42 040 15 gusting 18 26.4
2014-Oct-24 22:36 040 12 gusting 15 26.5
2014-Oct-24 22:30 040 15 gusting 18 26.4
2014-Oct-24 22:24 050 17 gusting 20 26.5
2014-Oct-24 22:18 050 19 gusting 23 26.4
2014-Oct-24 22:12 050 20 gusting 23 26.4
2014-Oct-24 22:06 050 19 gusting 23 26.4
2014-Oct-24 22:00 050 20 gusting 24 26.4
2014-Oct-24 21:54 040 20 gusting 24 26.4
2014-Oct-24 21:48 050 19 gusting 23 26.5
2014-Oct-24 20:54 040 20 gusting 25 26.6
2014-Oct-24 20:48 040 20 gusting 25 26.6
2014-Oct-24 19:54 040 20 gusting 29 26.4
2014-Oct-24 19:48 050 20 gusting 26 26.3
2014-Oct-24 18:54 040 24 gusting 30 26.0
2014-Oct-24 18:48 040 23 gusting 27 26.1
2014-Oct-24 17:54 040 26 gusting 31 26.0
2014-Oct-24 17:48 040 23 gusting 31 26.0
2014-Oct-24 17:42 040 25 gusting 31 25.9
2014-Oct-24 17:36 040 25 gusting 30 25.9
2014-Oct-24 17:30 040 24 gusting 31 26.0
2014-Oct-24 17:24 050 22 gusting 26 26.0
2014-Oct-24 17:18 040 20 gusting 26 26.1
2014-Oct-24 17:12 050 22 gusting 27 26.2
2014-Oct-24 17:06 040 22 gusting 27 26.3
2014-Oct-24 17:00 050 23 gusting 27 26.3
2014-Oct-24 16:54 050 24 gusting 30 26.4
2014-Oct-24 16:48 040 24 gusting 29 26.4
2014-Oct-24 16:30 050 24 gusting 29 26.4
2014-Oct-24 16:24 040 23 gusting 27 26.5
2014-Oct-24 16:18 040 23 gusting 31 26.4
2014-Oct-24 16:12 040 22 gusting 26 26.4
2014-Oct-24 16:06 040 20 gusting 26 26.3
2014-Oct-24 16:00 040 19 gusting 25 26.0
2014-Oct-24 15:54 040 17 gusting 22 25.9
2014-Oct-24 15:48 040 17 gusting 20 25.6
2014-Oct-24 14:54 040 15 gusting 19 25.2
2014-Oct-24 14:48 040 16 gusting 19 25.1
2014-Oct-24 14:42 050 16 gusting 19 25.1
2014-Oct-24 14:36 050 15 gusting 19 25.0
2014-Oct-24 14:30 040 15 gusting 19 24.9
2014-Oct-24 14:24 040 15 gusting 18 25.0
2014-Oct-24 14:18 050 15 gusting 19 25.1
2014-Oct-24 14:12 050 16 gusting 18 25.1
2014-Oct-24 14:06 050 18 gusting 22 25.1
2014-Oct-24 14:00 050 17 gusting 20 25.1
2014-Oct-24 13:54 060 16 gusting 19 24.8
2014-Oct-24 13:48 050 16 gusting 19 24.7
2014-Oct-24 13:42 050 16 gusting 18 24.5
2014-Oct-24 13:36 050 16 gusting 18 24.5
2014-Oct-24 13:30 050 16 gusting 20 24.5
2014-Oct-24 13:24 050 13 gusting 16 24.5
2014-Oct-24 13:18 050 14 gusting 17 24.5
2014-Oct-24 13:12 050 16 gusting 20 24.4
2014-Oct-24 13:06 040 14 gusting 18 24.3
2014-Oct-24 13:00 040 14 gusting 17 24.2
2014-Oct-24 12:54 040 13 gusting 15 24.1
2014-Oct-24 12:48 040 13 gusting 15 24.1
2014-Oct-24 11:54 040 15 gusting 17 24.0
2014-Oct-24 11:48 040 14 gusting 18 24.1
2014-Oct-24 10:54 050 14 gusting 16 23.9
2014-Oct-24 10:48 050 13 gusting 17 24.0
2014-Oct-24 09:54 060 14 gusting 16 24.1
2014-Oct-24 09:48 060 15 gusting 18 24.1
2014-Oct-24 09:42 060 15 gusting 19 24.1
2014-Oct-24 09:36 060 14 gusting 16 24.0
2014-Oct-24 09:30 060 13 gusting 16 24.0
2014-Oct-24 09:24 060 12 gusting 14 24.0
2014-Oct-24 09:18 060 12 gusting 14 23.9
2014-Oct-24 09:12 060 14 gusting 16 23.9
2014-Oct-24 09:06 070 14 gusting 16 23.9
2014-Oct-24 09:00 060 14 gusting 16 23.9
2014-Oct-24 08:54 060 14 gusting 16 23.8
2014-Oct-24 08:48 060 12 gusting 15 23.9
2014-Oct-24 08:42 060 12 gusting 14 24.0
2014-Oct-24 08:36 070 13 gusting 15 23.9
2014-Oct-24 08:30 060 13 gusting 16 23.9
2014-Oct-24 08:24 060 12 gusting 15 23.9
2014-Oct-24 08:18 060 13 gusting 15 23.9
2014-Oct-24 08:12 050 12 gusting 14 24.0
2014-Oct-24 08:06 060 12 gusting 14 24.1
2014-Oct-24 08:00 060 13 gusting 15 24.1
2014-Oct-24 07:54 060 14 gusting 16 24.1
2014-Oct-24 07:48 060 15 gusting 18 24.1
2014-Oct-24 06:54 070 15 gusting 18 25.3
2014-Oct-24 06:48 070 16 gusting 19 25.4
2014-Oct-24 06:42 070 15 gusting 17 25.4
2014-Oct-24 06:36 070 15 gusting 17 25.4
2014-Oct-24 06:30 060 16 gusting 18 25.3
2014-Oct-24 06:24 060 14 gusting 17 25.3
2014-Oct-24 06:18 070 14 gusting 18 25.2
2014-Oct-24 06:12 070 13 gusting 15 25.2
2014-Oct-24 06:06 070 15 gusting 18 25.2
2014-Oct-24 06:00 070 13 gusting 16 25.3